Time;durP1;ratioP1;P1;durP2;ratioP2;P2;SDS_P1;SDS_P2;PMS_P1;PMS_P2;Temp;Humidity;BMP_temperature;BMP_pressure;BME280_temperature;BME280_humidity;BME280_pressure;Samples;Min_cycle;Max_cycle;Signal;HPM_P1;HPM_P2
2022/09/19 00:01:10;;;;;;;11.02;1.63;;;11.30;99.90;;;;;;5083493;28;20045;-70
2022/09/19 00:03:38;;;;;;;20.60;2.05;;;11.40;99.90;;;;;;5087282;28;20044;-70
2022/09/19 00:06:04;;;;;;;11.13;2.22;;;11.30;99.90;;;;;;5100758;28;20048;-70
2022/09/19 00:08:30;;;;;;;12.68;1.88;;;11.40;99.90;;;;;;5086653;28;20044;-70
2022/09/19 00:11:00;;;;;;;9.38;1.70;;;11.30;99.90;;;;;;5086642;28;20104;-70
2022/09/19 00:13:25;;;;;;;10.63;2.60;;;11.30;99.90;;;;;;5085746;28;20044;-70
2022/09/19 00:15:51;;;;;;;14.43;1.70;;;11.30;99.90;;;;;;5083425;28;20044;-70
2022/09/19 00:18:17;;;;;;;10.68;1.80;;;11.40;99.90;;;;;;5086453;28;20049;-70
2022/09/19 00:20:43;;;;;;;11.95;2.20;;;11.40;99.90;;;;;;5084404;28;20049;-70
2022/09/19 00:26:07;;;;;;;11.30;1.65;;;11.40;99.90;;;;;;5083764;28;20055;-70
2022/09/19 00:28:33;;;;;;;12.35;1.70;;;11.40;99.90;;;;;;5086724;28;20037;-70
2022/09/19 00:31:00;;;;;;;12.32;2.10;;;11.40;99.90;;;;;;5082803;28;20072;-70
2022/09/19 00:33:30;;;;;;;15.13;1.90;;;11.40;99.90;;;;;;5082277;28;20404;-70
2022/09/19 00:36:03;;;;;;;11.60;1.80;;;11.30;99.90;;;;;;5080171;28;20070;-70
2022/09/19 00:38:30;;;;;;;14.05;2.08;;;11.40;99.90;;;;;;5084053;28;20045;-70
2022/09/19 00:40:57;;;;;;;7.97;1.60;;;11.40;99.90;;;;;;5084760;28;20119;-70
2022/09/19 00:43:41;;;;;;;13.63;2.00;;;11.40;99.90;;;;;;5084312;28;20488;-70
2022/09/19 00:46:07;;;;;;;12.40;1.90;;;11.40;99.90;;;;;;5084998;28;20056;-70
2022/09/19 00:48:34;;;;;;;12.45;2.22;;;11.40;99.90;;;;;;5082893;28;20044;-70
2022/09/19 00:51:01;;;;;;;10.60;2.33;;;11.40;99.90;;;;;;5084949;28;20056;-70
2022/09/19 00:53:27;;;;;;;10.65;1.95;;;11.50;99.90;;;;;;5086096;28;20044;-70
2022/09/19 00:55:55;;;;;;;18.95;2.13;;;11.40;99.90;;;;;;5085157;28;20045;-70
2022/09/19 00:58:27;;;;;;;15.45;2.22;;;11.40;99.90;;;;;;5083547;28;20060;-70
2022/09/19 01:00:53;;;;;;;12.35;2.13;;;11.40;99.90;;;;;;5081275;28;20044;-71
2022/09/19 01:03:19;;;;;;;13.45;1.65;;;11.40;99.90;;;;;;5084236;28;20114;-71
2022/09/19 01:05:51;;;;;;;15.93;2.13;;;11.40;99.90;;;;;;5084100;28;20052;-71
2022/09/19 01:08:43;;;;;;;11.02;2.20;;;11.40;99.90;;;;;;5084027;28;20036;-71
2022/09/19 01:11:24;;;;;;;10.45;1.70;;;11.30;99.90;;;;;;5081484;28;20040;-71
2022/09/19 01:14:14;;;;;;;10.10;1.85;;;11.40;99.90;;;;;;5083354;28;20112;-71
2022/09/19 01:16:39;;;;;;;23.07;2.47;;;11.40;99.90;;;;;;5082590;28;20099;-70
2022/09/19 01:19:25;;;;;;;16.08;1.98;;;11.50;99.90;;;;;;5084826;28;20316;-70
2022/09/19 01:22:08;;;;;;;13.00;2.20;;;11.40;99.90;;;;;;5098507;28;20063;-71
2022/09/19 01:24:55;;;;;;;19.73;3.35;;;11.50;99.90;;;;;;5083971;28;20063;-71
2022/09/19 01:27:46;;;;;;;11.02;2.67;;;11.40;99.90;;;;;;5084171;28;20048;-71
2022/09/19 01:30:14;;;;;;;18.73;2.22;;;11.40;99.90;;;;;;5083680;28;20055;-71
2022/09/19 01:33:17;;;;;;;12.38;1.90;;;11.40;99.90;;;;;;5082536;28;20048;-71
2022/09/19 01:35:46;;;;;;;13.57;2.33;;;11.40;99.90;;;;;;5083631;28;20052;-71
2022/09/19 01:38:24;;;;;;;14.10;1.75;;;11.40;99.90;;;;;;5083882;28;20419;-71
2022/09/19 01:40:52;;;;;;;8.30;1.80;;;11.20;99.90;;;;;;5083432;28;20477;-71
2022/09/19 01:43:19;;;;;;;16.50;2.20;;;11.20;99.90;;;;;;5083545;28;20051;-71
2022/09/19 01:45:46;;;;;;;13.80;2.08;;;11.20;99.90;;;;;;5084891;28;20083;-71
2022/09/19 01:48:16;;;;;;;9.00;2.47;;;11.20;99.90;;;;;;5083577;28;20041;-71
2022/09/19 01:51:28;;;;;;;16.83;2.10;;;11.10;99.90;;;;;;5083072;28;20078;-71
2022/09/19 01:54:22;;;;;;;16.60;2.33;;;11.10;99.90;;;;;;5006132;28;20450;-71
2022/09/19 01:56:59;;;;;;;14.32;2.15;;;11.10;99.90;;;;;;5005048;28;20089;-71
2022/09/19 01:59:47;;;;;;;17.48;2.53;;;11.10;99.90;;;;;;5017386;28;20088;-71
2022/09/19 02:02:43;;;;;;;14.90;2.33;;;11.10;99.90;;;;;;5006334;28;20054;-71
2022/09/19 02:05:27;;;;;;;21.75;2.88;;;11.10;99.90;;;;;;5006307;28;20526;-71
2022/09/19 02:08:28;;;;;;;15.90;2.85;;;11.20;99.90;;;;;;5018066;28;20050;-71
2022/09/19 02:11:03;;;;;;;13.68;2.35;;;11.10;99.90;;;;;;5022690;28;20052;-71
2022/09/19 02:13:33;;;;;;;24.05;2.70;;;11.20;99.90;;;;;;5020181;28;20056;-71
2022/09/19 02:16:11;;;;;;;19.20;3.25;;;11.10;99.90;;;;;;5006155;28;20410;-71
2022/09/19 02:18:57;;;;;;;16.13;2.38;;;11.10;99.90;;;;;;5021317;28;20093;-71
2022/09/19 02:21:34;;;;;;;15.57;2.00;;;11.20;99.90;;;;;;5022399;28;20078;-71
2022/09/19 02:24:06;;;;;;;14.00;1.83;;;11.10;99.90;;;;;;5019337;28;20054;-71
2022/09/19 02:26:33;;;;;;;20.85;2.80;;;11.10;99.90;;;;;;5005972;28;20052;-71
2022/09/19 02:29:01;;;;;;;14.55;2.33;;;11.20;99.90;;;;;;5005879;28;20081;-71
2022/09/19 02:31:27;;;;;;;19.92;2.50;;;11.20;99.90;;;;;;5059249;28;20052;-71
2022/09/19 02:33:58;;;;;;;22.77;3.45;;;11.20;99.90;;;;;;5081106;28;20076;-71
2022/09/19 02:36:37;;;;;;;20.88;2.00;;;11.20;99.90;;;;;;5084778;28;20489;-71
2022/09/19 02:39:28;;;;;;;14.80;2.03;;;11.30;99.90;;;;;;5085960;28;20138;-71
2022/09/19 02:42:01;;;;;;;19.88;2.30;;;11.20;99.90;;;;;;5087164;28;20078;-71
2022/09/19 02:44:38;;;;;;;18.35;2.65;;;11.30;99.90;;;;;;5082739;28;20045;-71
2022/09/19 02:47:16;;;;;;;18.40;2.13;;;11.20;99.90;;;;;;5086752;28;20045;-71
2022/09/19 02:49:50;;;;;;;14.75;2.78;;;11.30;99.90;;;;;;5086294;28;20130;-71
2022/09/19 02:52:23;;;;;;;18.95;2.30;;;11.30;99.90;;;;;;5086990;28;20049;-71
2022/09/19 02:54:57;;;;;;;13.43;2.15;;;11.30;99.90;;;;;;5086562;28;20098;-71
2022/09/19 02:57:25;;;;;;;23.67;2.35;;;11.30;99.90;;;;;;5087288;28;20049;-71
2022/09/19 02:59:58;;;;;;;16.92;2.17;;;11.40;99.90;;;;;;5086360;28;20033;-71
2022/09/19 03:02:37;;;;;;;15.05;2.55;;;11.50;99.90;;;;;;5083372;28;20377;-70
2022/09/19 03:05:08;;;;;;;16.70;3.20;;;11.40;99.90;;;;;;5095693;28;20060;-71
2022/09/19 03:07:38;;;;;;;13.95;2.58;;;11.40;99.90;;;;;;5087372;28;20259;-71
2022/09/19 03:10:04;;;;;;;;;;;11.40;99.90;;;;;;5090622;28;20044;-70
2022/09/19 03:12:54;;;;;;;15.25;2.95;;;11.40;99.90;;;;;;5105331;28;19942;-70
2022/09/19 03:15:36;;;;;;;19.60;2.95;;;11.50;99.90;;;;;;5090533;28;20082;-71
2022/09/19 03:18:08;;;;;;;17.92;2.45;;;11.50;99.90;;;;;;5089024;28;20104;-70
2022/09/19 03:20:36;;;;;;;17.83;2.42;;;11.50;99.90;;;;;;5088840;28;20048;-70
2022/09/19 03:23:04;;;;;;;14.68;2.17;;;11.50;99.90;;;;;;5107814;28;20055;-70
2022/09/19 03:25:30;;;;;;;18.48;2.63;;;11.50;99.90;;;;;;5088836;28;20043;-71
2022/09/19 03:27:57;;;;;;;17.13;2.78;;;11.50;99.90;;;;;;5089533;28;20044;-71
2022/09/19 03:30:23;;;;;;;19.15;2.58;;;11.50;99.90;;;;;;5107540;28;20040;-71
2022/09/19 03:32:49;;;;;;;14.93;2.10;;;11.50;99.90;;;;;;5089459;28;20044;-71
2022/09/19 03:35:15;;;;;;;17.67;1.95;;;11.50;99.90;;;;;;5089110;28;20119;-71
2022/09/19 03:37:41;;;;;;;15.60;2.05;;;11.40;99.90;;;;;;5089381;28;20874;-71
2022/09/19 03:40:07;;;;;;;12.02;2.85;;;11.30;99.90;;;;;;5088995;28;20075;-71
2022/09/19 03:42:34;;;;;;;14.77;2.22;;;11.30;99.90;;;;;;5107237;28;20048;-71
2022/09/19 03:45:01;;;;;;;11.55;2.13;;;11.30;99.90;;;;;;5089737;28;20052;-71
2022/09/19 03:47:27;;;;;;;14.05;2.33;;;11.30;99.90;;;;;;5089909;28;20076;-71
2022/09/19 03:49:52;;;;;;;14.50;2.00;;;11.30;99.90;;;;;;5105812;28;20044;-71
2022/09/19 03:52:19;;;;;;;15.93;2.40;;;11.20;99.90;;;;;;5087978;28;20116;-71
2022/09/19 03:54:45;;;;;;;12.75;1.80;;;11.20;99.90;;;;;;5086973;28;20048;-70
2022/09/19 03:57:12;;;;;;;16.38;2.20;;;11.20;99.90;;;;;;5106953;28;20047;-71
2022/09/19 03:59:40;;;;;;;17.67;2.55;;;11.20;99.90;;;;;;5106550;28;20044;-71
2022/09/19 04:02:06;;;;;;;17.25;2.45;;;11.20;99.90;;;;;;5105511;28;20044;-71
2022/09/19 04:04:32;;;;;;;17.35;2.33;;;11.10;99.90;;;;;;5083692;28;20052;-71
2022/09/19 04:06:58;;;;;;;17.88;2.38;;;11.20;99.90;;;;;;5086115;28;20064;-70
2022/09/19 04:09:25;;;;;;;15.60;2.42;;;11.20;99.90;;;;;;5085528;28;20043;-70
2022/09/19 04:11:52;;;;;;;11.65;2.58;;;11.20;99.90;;;;;;5085142;28;20059;-70
2022/09/19 04:14:18;;;;;;;19.27;2.90;;;11.30;99.90;;;;;;5085369;28;20598;-70
2022/09/19 04:16:44;;;;;;;16.25;2.75;;;11.30;99.90;;;;;;5085787;28;20053;-71
2022/09/19 04:19:12;;;;;;;13.70;1.98;;;11.40;99.90;;;;;;5082454;28;20049;-71
2022/09/19 04:21:42;;;;;;;24.23;2.35;;;11.50;99.90;;;;;;5086486;28;20056;-71
2022/09/19 04:24:12;;;;;;;14.68;2.08;;;11.60;99.90;;;;;;5085472;28;20074;-71
2022/09/19 04:26:38;;;;;;;14.02;1.98;;;11.50;99.90;;;;;;5085017;28;20284;-71
2022/09/19 04:29:05;;;;;;;16.98;2.10;;;11.50;99.90;;;;;;5084385;28;20079;-71
2022/09/19 04:31:39;;;;;;;14.32;2.45;;;11.60;99.90;;;;;;5083836;28;20055;-72
2022/09/19 04:34:06;;;;;;;18.52;2.95;;;11.50;99.90;;;;;;5054266;28;20052;-70
2022/09/19 04:36:33;;;;;;;21.17;2.65;;;11.50;99.90;;;;;;5081979;28;20044;-69
2022/09/19 04:39:02;;;;;;;23.13;2.92;;;11.30;99.90;;;;;;5083107;28;20051;-71
2022/09/19 04:41:33;;;;;;;26.45;2.83;;;11.40;99.90;;;;;;5084143;28;20074;-71
2022/09/19 04:44:00;;;;;;;17.67;2.88;;;11.40;99.90;;;;;;5081839;28;20048;-70
2022/09/19 04:46:27;;;;;;;23.90;2.95;;;11.30;99.90;;;;;;5084212;28;20096;-70
2022/09/19 04:48:54;;;;;;;18.15;2.30;;;11.30;99.90;;;;;;5067939;28;20056;-69
2022/09/19 04:51:20;;;;;;;23.90;3.85;;;11.30;99.90;;;;;;5085571;28;20048;-70
2022/09/19 04:53:46;;;;;;;21.13;2.67;;;11.40;99.90;;;;;;5081238;28;20044;-70
2022/09/19 04:56:12;;;;;;;19.23;2.15;;;11.40;99.90;;;;;;5081664;28;20558;-70
2022/09/19 04:58:40;;;;;;;11.82;1.83;;;11.40;99.90;;;;;;5081752;28;20049;-70
2022/09/19 05:01:07;;;;;;;9.38;1.80;;;11.60;99.90;;;;;;5081926;28;20118;-70
2022/09/19 05:03:35;;;;;;;15.10;2.20;;;11.60;99.90;;;;;;5081392;28;20563;-70
2022/09/19 05:06:01;;;;;;;13.63;1.90;;;11.70;99.90;;;;;;5081020;28;20048;-70
2022/09/19 05:08:29;;;;;;;11.38;1.85;;;11.60;99.90;;;;;;5084288;28;20388;-70
2022/09/19 05:10:56;;;;;;;12.50;2.45;;;11.60;99.90;;;;;;5084207;28;20120;-71
2022/09/19 05:13:23;;;;;;;11.15;2.95;;;11.60;99.90;;;;;;5080425;28;20117;-71
2022/09/19 05:15:50;;;;;;;11.40;1.90;;;11.60;99.90;;;;;;5066256;28;20052;-72
2022/09/19 05:18:20;;;;;;;6.45;1.70;;;11.50;99.90;;;;;;5081426;28;20037;-72
2022/09/19 05:20:45;;;;;;;11.85;2.33;;;11.60;99.90;;;;;;5083389;28;20052;-77
2022/09/19 05:23:11;;;;;;;13.00;1.75;;;11.50;99.90;;;;;;5080492;28;20506;-80
2022/09/19 05:25:40;;;;;;;18.05;2.60;;;11.60;99.90;;;;;;5083609;28;20041;-79
2022/09/19 05:28:08;;;;;;;18.50;2.83;;;11.50;99.90;;;;;;5084051;28;20048;-79
2022/09/19 05:30:37;;;;;;;18.35;2.58;;;11.60;99.90;;;;;;5084470;28;20051;-80
2022/09/19 05:33:03;;;;;;;14.40;2.35;;;11.70;99.90;;;;;;5069800;28;20032;-79
2022/09/19 05:35:31;;;;;;;17.55;2.90;;;11.70;99.90;;;;;;5083616;28;20044;-79
2022/09/19 05:37:57;;;;;;;22.45;2.80;;;11.60;99.90;;;;;;5084034;28;20064;-80
2022/09/19 05:40:27;;;;;;;17.85;2.20;;;11.60;99.90;;;;;;5082910;28;20039;-80
2022/09/19 05:43:01;;;;;;;20.88;2.50;;;11.70;99.90;;;;;;5081584;28;20057;-80
2022/09/19 05:45:27;;;;;;;16.88;2.45;;;11.50;99.90;;;;;;5079079;28;20044;-80
2022/09/19 05:47:59;;;;;;;18.27;2.78;;;11.60;99.90;;;;;;5082551;28;20040;-80
2022/09/19 05:50:25;;;;;;;21.10;3.60;;;11.60;99.90;;;;;;5082389;28;20073;-80
2022/09/19 05:55:37;;;;;;;18.70;2.22;;;11.50;99.90;;;;;;5038734;28;20048;-74
2022/09/19 05:58:06;;;;;;;20.05;2.65;;;11.50;99.90;;;;;;5049116;28;20493;-74
2022/09/19 06:00:32;;;;;;;20.17;2.50;;;11.40;99.90;;;;;;5062977;28;20406;-74
2022/09/19 06:03:00;;;;;;;17.52;2.28;;;11.40;99.90;;;;;;5076442;28;20067;-74
2022/09/19 06:05:27;;;;;;;15.18;2.50;;;11.40;99.90;;;;;;5069136;28;20051;-73
2022/09/19 06:07:56;;;;;;;22.55;3.03;;;11.40;99.90;;;;;;5061331;28;20054;-74
2022/09/19 06:10:23;;;;;;;19.23;2.22;;;11.50;99.90;;;;;;5072070;28;20056;-73
2022/09/19 06:12:49;;;;;;;23.23;3.75;;;11.50;99.90;;;;;;5078019;28;20051;-74
2022/09/19 06:15:15;;;;;;;15.95;2.83;;;11.50;99.90;;;;;;5061551;28;20048;-73
2022/09/19 06:17:41;;;;;;;22.52;3.05;;;11.50;99.90;;;;;;5069768;28;20094;-73
2022/09/19 06:20:08;;;;;;;23.98;4.35;;;11.50;99.90;;;;;;5070106;28;20081;-73
2022/09/19 06:22:34;;;;;;;18.30;2.50;;;11.50;99.90;;;;;;5079306;28;20129;-73
2022/09/19 06:25:00;;;;;;;25.65;3.47;;;11.60;99.90;;;;;;5054147;28;20059;-73
2022/09/19 06:27:30;;;;;;;14.00;2.17;;;11.60;99.90;;;;;;5056372;28;20041;-73
2022/09/19 06:29:56;;;;;;;17.42;2.13;;;11.60;99.90;;;;;;5069230;28;20079;-73
2022/09/19 06:32:21;;;;;;;15.70;1.98;;;11.70;99.90;;;;;;5058674;28;20400;-73
2022/09/19 06:34:47;;;;;;;20.27;2.97;;;11.80;99.90;;;;;;5059615;28;20558;-73
2022/09/19 06:37:13;;;;;;;21.17;2.88;;;11.70;99.90;;;;;;5078282;28;20055;-73
2022/09/19 06:39:39;;;;;;;20.17;3.00;;;11.70;99.90;;;;;;5070754;28;20114;-72
2022/09/19 06:42:04;;;;;;;18.08;1.95;;;11.70;99.90;;;;;;5084118;28;20044;-73
2022/09/19 06:44:30;;;;;;;15.55;2.25;;;11.70;99.90;;;;;;5070024;28;20052;-73
2022/09/19 06:46:58;;;;;;;14.30;1.92;;;11.80;99.90;;;;;;5057076;28;20041;-73
2022/09/19 06:49:23;;;;;;;18.08;2.45;;;11.80;99.90;;;;;;5067770;28;20054;-74
2022/09/19 06:51:50;;;;;;;17.20;2.28;;;11.80;99.90;;;;;;5076053;28;20080;-74
2022/09/19 06:54:15;;;;;;;14.00;2.05;;;11.80;99.90;;;;;;5066094;28;20528;-74
2022/09/19 06:56:41;;;;;;;12.82;2.63;;;11.70;99.90;;;;;;5072752;28;20531;-74
2022/09/19 06:59:07;;;;;;;17.83;2.33;;;11.80;99.90;;;;;;5074554;28;20097;-72
2022/09/19 07:01:33;;;;;;;17.00;2.33;;;11.80;99.90;;;;;;5047641;28;20068;-72
2022/09/19 07:03:59;;;;;;;21.13;2.50;;;11.80;99.90;;;;;;5074232;28;20535;-71
2022/09/19 07:06:25;;;;;;;18.67;2.00;;;11.90;99.90;;;;;;5066754;28;20059;-72
2022/09/19 07:08:50;;;;;;;23.38;2.13;;;12.00;99.90;;;;;;5076610;28;20191;-72
2022/09/19 07:11:16;;;;;;;11.85;2.03;;;12.20;99.90;;;;;;5067278;28;20056;-73
2022/09/19 07:13:43;;;;;;;12.38;2.00;;;12.30;99.90;;;;;;5074663;28;20040;-73
2022/09/19 07:16:09;;;;;;;11.93;2.10;;;12.40;99.90;;;;;;5072764;28;20056;-72
2022/09/19 07:18:36;;;;;;;9.90;1.65;;;12.40;99.90;;;;;;5074075;28;20044;-73
2022/09/19 07:21:02;;;;;;;16.35;2.33;;;12.50;99.90;;;;;;5064800;28;20064;-72
2022/09/19 07:23:28;;;;;;;13.48;2.60;;;12.60;99.90;;;;;;5074240;28;20068;-72
2022/09/19 07:25:55;;;;;;;18.77;2.67;;;12.70;99.90;;;;;;5053777;28;20110;-72
2022/09/19 07:28:21;;;;;;;14.05;2.08;;;12.80;99.90;;;;;;5063620;28;20412;-72
2022/09/19 07:30:48;;;;;;;20.15;2.53;;;12.90;99.90;;;;;;5073476;28;20082;-71
2022/09/19 07:33:17;;;;;;;12.85;2.05;;;12.90;99.90;;;;;;5067720;28;20094;-71
2022/09/19 07:35:43;;;;;;;17.23;2.25;;;13.00;99.90;;;;;;5073194;28;20048;-72
2022/09/19 07:38:13;;;;;;;16.00;2.45;;;12.90;99.90;;;;;;5077557;28;21601;-70
2022/09/19 07:40:40;;;;;;;17.60;2.88;;;12.80;99.90;;;;;;5069819;28;20120;-73
2022/09/19 07:43:06;;;;;;;15.82;2.55;;;12.70;99.90;;;;;;5076806;28;20036;-70
2022/09/19 07:45:34;;;;;;;12.65;2.50;;;12.70;99.90;;;;;;5081986;28;20627;-72
2022/09/19 07:48:00;;;;;;;21.10;2.80;;;12.70;99.90;;;;;;5076224;28;20639;-73
2022/09/19 07:50:26;;;;;;;20.10;2.45;;;12.70;99.90;;;;;;5055471;28;20064;-73
2022/09/19 07:53:04;;;;;;;13.52;2.60;;;12.90;99.90;;;;;;5059554;28;20094;-71
2022/09/19 07:55:30;;;;;;;13.73;2.78;;;12.90;99.90;;;;;;5073974;28;20063;-70
2022/09/19 07:57:58;;;;;;;15.98;2.55;;;12.90;99.90;;;;;;5064533;28;20123;-72
2022/09/19 08:00:26;;;;;;;13.85;1.80;;;13.00;99.90;;;;;;5071926;28;20063;-71
2022/09/19 08:03:04;;;;;;;11.90;2.20;;;13.00;99.90;;;;;;5078593;28;20047;-72
2022/09/19 08:05:34;;;;;;;12.98;1.85;;;13.10;99.90;;;;;;5072259;28;20059;-70
2022/09/19 08:08:00;;;;;;;14.27;2.10;;;13.10;99.90;;;;;;5078911;28;20053;-71
2022/09/19 08:10:27;;;;;;;10.30;1.83;;;13.10;99.90;;;;;;5074134;28;20052;-72
2022/09/19 08:12:52;;;;;;;12.82;2.28;;;13.20;99.90;;;;;;5076520;28;20047;-72
2022/09/19 08:15:19;;;;;;;15.65;2.20;;;13.10;99.90;;;;;;5072269;28;20048;-68
2022/09/19 08:17:57;;;;;;;15.68;2.55;;;13.30;99.90;;;;;;5072200;28;20040;-71
2022/09/19 08:20:25;;;;;;;9.52;1.48;;;13.40;99.90;;;;;;5067784;28;20128;-68
2022/09/19 08:22:58;;;;;;;16.13;2.35;;;13.50;99.90;;;;;;5080688;28;20036;-71
2022/09/19 08:25:29;;;;;;;16.92;2.38;;;13.50;99.90;;;;;;5070877;28;20520;-69
2022/09/19 08:27:56;;;;;;;13.15;2.80;;;13.60;99.90;;;;;;5077599;28;20071;-68
2022/09/19 08:30:24;;;;;;;14.88;2.10;;;13.60;99.90;;;;;;5075759;28;20051;-68
2022/09/19 08:32:50;;;;;;;20.38;2.42;;;13.70;99.90;;;;;;5078053;28;20389;-68
2022/09/19 08:35:17;;;;;;;18.27;2.80;;;13.70;99.90;;;;;;5058134;28;20063;-70
2022/09/19 08:37:44;;;;;;;17.88;2.95;;;13.70;99.90;;;;;;5061300;28;20059;-68
2022/09/19 08:40:16;;;;;;;12.93;2.40;;;13.70;99.90;;;;;;5070457;28;20128;-71
2022/09/19 08:43:00;;;;;;;14.70;2.42;;;13.70;99.90;;;;;;5077321;28;20052;-71
2022/09/19 08:45:33;;;;;;;12.20;2.25;;;13.70;99.90;;;;;;5070749;28;20043;-71
2022/09/19 08:48:05;;;;;;;13.77;2.30;;;13.80;99.90;;;;;;5072369;28;20048;-69
2022/09/19 08:50:34;;;;;;;14.20;2.20;;;13.80;99.90;;;;;;5071668;28;20039;-69
2022/09/19 08:53:04;;;;;;;12.05;1.98;;;13.90;99.90;;;;;;5077938;28;20653;-72
2022/09/19 08:55:33;;;;;;;13.38;2.40;;;13.80;99.90;;;;;;5070980;28;20079;-71
2022/09/19 08:58:05;;;;;;;17.75;3.30;;;13.80;99.90;;;;;;5074988;28;20484;-72
2022/09/19 09:00:40;;;;;;;13.98;2.03;;;13.80;99.90;;;;;;5076997;28;20060;-72
2022/09/19 09:03:13;;;;;;;15.15;2.22;;;13.80;99.90;;;;;;5078842;28;20046;-71
2022/09/19 09:05:55;;;;;;;16.42;2.30;;;13.90;99.90;;;;;;5053625;28;20055;-70
2022/09/19 09:08:32;;;;;;;11.80;2.20;;;14.00;99.90;;;;;;5073165;28;20048;-72
2022/09/19 09:11:22;;;;;;;15.93;2.50;;;14.10;99.90;;;;;;5079892;28;20047;-71
2022/09/19 09:14:19;;;;;;;15.45;2.15;;;14.20;99.90;;;;;;5076633;28;20106;-72
2022/09/19 09:17:08;;;;;;;14.77;2.10;;;14.30;99.90;;;;;;5064529;28;20072;-69
2022/09/19 09:19:58;;;;;;;22.95;3.42;;;14.40;99.90;;;;;;5078634;28;20083;-72
2022/09/19 09:22:48;;;;;;;19.13;3.20;;;14.50;99.90;;;;;;5043674;28;20477;-72
2022/09/19 09:25:19;;;;;;;14.18;2.65;;;14.60;99.90;;;;;;5068532;28;20043;-70
2022/09/19 09:28:25;;;;;;;16.85;2.83;;;14.70;99.90;;;;;;5060209;28;20048;-69
2022/09/19 09:30:54;;;;;;;17.38;2.67;;;14.80;99.90;;;;;;4966897;28;20046;-71
2022/09/19 09:33:48;;;;;;;13.07;2.15;;;14.80;99.90;;;;;;4951941;28;20054;-70
2022/09/19 09:36:22;;;;;;;17.52;2.30;;;14.90;99.90;;;;;;4957702;28;20063;-71
2022/09/19 09:38:55;;;;;;;15.63;2.42;;;15.20;99.90;;;;;;4975491;28;20050;-70
2022/09/19 09:41:49;;;;;;;17.63;3.38;;;15.20;99.90;;;;;;4971152;28;20062;-72
2022/09/19 09:44:27;;;;;;;12.73;2.75;;;15.30;99.90;;;;;;4995168;28;20073;-70
2022/09/19 09:47:14;;;;;;;14.65;2.50;;;15.40;99.90;;;;;;4969312;28;20056;-72
2022/09/19 09:49:39;;;;;;;13.35;2.20;;;15.40;99.90;;;;;;4986969;28;20050;-69
2022/09/19 09:52:32;;;;;;;11.75;2.33;;;15.50;99.90;;;;;;4983038;28;20050;-71
2022/09/19 09:58:09;;;;;;;14.15;2.58;;;15.70;99.90;;;;;;4978593;28;20050;-72
2022/09/19 10:03:49;;;;;;;17.67;3.28;;;15.70;99.90;;;;;;4981295;28;20346;-72
2022/09/19 10:06:46;;;;;;;12.35;1.67;;;15.80;99.90;;;;;;5064194;28;20131;-73
2022/09/19 10:09:34;;;;;;;12.57;2.25;;;15.80;99.90;;;;;;5053282;28;20064;-70
2022/09/19 10:12:35;;;;;;;17.90;2.50;;;15.90;99.90;;;;;;5010285;28;20049;-70
2022/09/19 10:15:05;;;;;;;13.98;2.30;;;16.00;99.90;;;;;;5044584;28;20041;-73
2022/09/19 10:17:35;;;;;;;10.40;2.08;;;15.60;99.90;;;;;;5032300;28;20049;-71
2022/09/19 10:20:15;;;;;;;17.55;2.53;;;15.00;99.90;;;;;;5026715;28;20572;-72
2022/09/19 10:22:41;;;;;;;18.98;3.35;;;14.70;99.90;;;;;;5020920;28;20072;-75
2022/09/19 10:25:09;;;;;;;13.30;2.00;;;14.40;99.90;;;;;;5027003;28;20110;-72
2022/09/19 10:27:39;;;;;;;12.48;1.90;;;14.30;99.90;;;;;;5038512;28;20056;-74
2022/09/19 10:30:15;;;;;;;9.90;2.00;;;14.10;99.90;;;;;;5044474;28;20122;-75
2022/09/19 10:32:43;;;;;;;14.85;2.58;;;14.10;99.90;;;;;;5036149;28;20144;-72
2022/09/19 10:35:31;;;;;;;8.18;1.60;;;14.00;99.90;;;;;;5013572;28;20634;-75
2022/09/19 10:38:05;;;;;;;8.05;1.33;;;13.90;99.90;;;;;;5037811;28;20188;-75
2022/09/19 10:40:32;;;;;;;5.43;1.25;;;13.90;99.90;;;;;;5028811;28;20080;-70
2022/09/19 10:42:59;;;;;;;11.02;1.48;;;13.80;99.90;;;;;;5040093;28;20049;-73
2022/09/19 10:45:32;;;;;;;10.55;2.28;;;14.00;99.90;;;;;;5054328;28;20052;-73
2022/09/19 10:48:16;;;;;;;8.75;2.08;;;13.90;99.90;;;;;;5054493;28;20041;-72
2022/09/19 10:50:44;;;;;;;9.25;2.00;;;14.00;99.90;;;;;;5056552;28;20048;-74
2022/09/19 10:53:22;;;;;;;7.88;1.95;;;14.10;99.90;;;;;;5069659;28;20404;-74
2022/09/19 10:55:49;;;;;;;8.27;1.42;;;14.00;99.90;;;;;;5069778;28;20617;-72
2022/09/19 10:58:22;;;;;;;11.88;2.95;;;13.90;99.90;;;;;;5073822;28;20126;-71
2022/09/19 11:00:55;;;;;;;8.13;1.92;;;13.70;99.90;;;;;;5066388;28;20400;-73
2022/09/19 11:03:23;;;;;;;10.65;1.85;;;13.60;99.90;;;;;;5080156;28;20556;-73
2022/09/19 11:06:10;;;;;;;10.30;1.80;;;13.60;99.90;;;;;;5056561;28;20067;-72
2022/09/19 11:08:45;;;;;;;11.10;2.67;;;13.60;99.90;;;;;;5077073;28;20045;-70
2022/09/19 11:11:40;;;;;;;12.40;2.30;;;13.60;99.90;;;;;;5072830;28;20138;-73
2022/09/19 11:14:32;;;;;;;8.95;1.63;;;13.60;99.90;;;;;;5076331;28;20131;-73
2022/09/19 11:17:04;;;;;;;11.68;2.33;;;13.70;99.90;;;;;;5070108;28;20068;-72
2022/09/19 11:20:04;;;;;;;10.80;2.40;;;13.80;99.90;;;;;;5062568;28;20039;-73
2022/09/19 11:22:51;;;;;;;7.47;2.53;;;13.90;99.90;;;;;;5074946;28;20117;-73
2022/09/19 11:25:29;;;;;;;9.35;2.05;;;14.20;99.90;;;;;;5069887;28;20045;-70
2022/09/19 11:28:10;;;;;;;11.63;2.10;;;14.30;99.90;;;;;;5076677;28;20041;-69
2022/09/19 11:30:58;;;;;;;9.80;1.90;;;14.50;99.90;;;;;;5071296;28;20075;-70
2022/09/19 11:34:06;;;;;;;11.77;2.60;;;14.70;99.90;;;;;;5067524;28;20036;-73
2022/09/19 11:36:53;;;;;;;8.68;1.50;;;14.80;99.90;;;;;;5065213;28;20272;-72
2022/09/19 11:39:51;;;;;;;8.38;1.35;;;15.10;99.90;;;;;;5077816;28;20151;-72
2022/09/19 11:42:51;;;;;;;7.68;1.50;;;15.30;99.90;;;;;;5073196;28;20056;-72
2022/09/19 11:45:19;;;;;;;8.23;1.83;;;15.40;99.90;;;;;;5068594;28;20051;-74
2022/09/19 11:48:36;;;;;;;10.20;1.77;;;15.50;99.90;;;;;;5079711;28;20072;-70
2022/09/19 11:51:43;;;;;;;7.70;2.08;;;15.70;99.90;;;;;;4970947;28;20226;-71
2022/09/19 11:54:53;;;;;;;10.32;1.83;;;15.90;99.90;;;;;;4982178;28;20055;-72
2022/09/19 11:57:22;;;;;;;16.92;1.80;;;16.20;99.90;;;;;;4956805;28;20050;-72
2022/09/19 12:00:06;;;;;;;11.32;2.10;;;16.50;99.90;;;;;;4964791;28;20558;-72
2022/09/19 12:02:44;;;;;;;12.73;2.17;;;16.60;99.90;;;;;;4970728;28;20046;-72
2022/09/19 12:05:28;;;;;;;11.23;2.42;;;16.50;99.90;;;;;;4979916;28;20056;-73
2022/09/19 12:08:17;;;;;;;13.10;2.15;;;16.70;99.90;;;;;;4927107;28;20054;-73
2022/09/19 12:10:49;;;;;;;7.22;2.03;;;16.80;99.90;;;;;;4989461;28;20046;-73
2022/09/19 12:13:16;;;;;;;11.52;2.10;;;16.80;99.90;;;;;;4996702;28;20090;-73
2022/09/19 12:15:51;;;;;;;8.88;1.52;;;16.80;99.90;;;;;;4979281;28;20610;-73
2022/09/19 12:18:24;;;;;;;10.48;2.10;;;16.70;99.90;;;;;;4993074;28;20301;-74
2022/09/19 12:20:54;;;;;;;11.27;2.25;;;16.80;99.90;;;;;;4966159;28;20046;-73
2022/09/19 12:26:18;;;;;;;10.02;3.22;;;16.50;99.90;;;;;;4997321;28;20048;-73
2022/09/19 12:28:53;;;;;;;13.45;2.42;;;16.30;99.90;;;;;;5061683;28;20045;-73
2022/09/19 12:31:25;;;;;;;15.90;2.30;;;16.40;99.90;;;;;;5072319;28;20050;-72
2022/09/19 12:34:07;;;;;;;7.28;1.60;;;16.50;99.90;;;;;;5077253;28;20087;-71
2022/09/19 12:36:42;;;;;;;10.57;2.47;;;16.80;99.90;;;;;;5078061;28;20064;-73
2022/09/19 12:39:18;;;;;;;11.48;2.00;;;17.00;99.90;;;;;;5058739;28;20087;-72
2022/09/19 12:42:08;;;;;;;10.75;2.38;;;17.10;99.90;;;;;;5050330;28;20048;-72
2022/09/19 12:44:52;;;;;;;7.85;1.75;;;16.80;99.90;;;;;;5059414;28;20059;-72
2022/09/19 12:47:46;;;;;;;6.68;1.90;;;16.50;99.90;;;;;;5070774;28;20075;-73
2022/09/19 12:50:19;;;;;;;11.10;1.77;;;16.30;99.90;;;;;;5077670;28;20052;-71
2022/09/19 12:52:59;;;;;;;12.88;2.10;;;16.30;99.90;;;;;;5070172;28;20048;-72
2022/09/19 12:55:33;;;;;;;10.60;2.10;;;16.20;99.90;;;;;;5077235;28;20198;-71
2022/09/19 12:58:23;;;;;;;10.55;2.20;;;16.00;99.90;;;;;;5042931;28;20087;-73
2022/09/19 13:00:51;;;;;;;8.52;2.08;;;15.90;99.90;;;;;;5069453;28;20110;-71
2022/09/19 13:03:31;;;;;;;13.23;2.53;;;15.90;99.90;;;;;;5077217;28;20052;-73
2022/09/19 13:06:02;;;;;;;10.73;2.47;;;15.80;99.90;;;;;;5068579;28;20667;-73
2022/09/19 13:08:44;;;;;;;14.95;2.17;;;16.00;99.90;;;;;;5059967;28;20049;-74
2022/09/19 13:11:13;;;;;;;12.55;2.17;;;16.60;99.90;;;;;;5070198;28;20459;-70
2022/09/19 13:14:11;;;;;;;14.23;2.33;;;17.20;99.90;;;;;;5083658;28;20395;-73
2022/09/19 13:23:30;;;;;;;10.60;2.58;;;17.60;99.90;;;;;;5051248;28;20058;-73
2022/09/19 13:25:07;;;;;;;7.90;1.60;;;19.00;99.90;;;;;;5061596;28;20236;-73
2022/09/19 13:27:34;;;;;;;10.18;2.15;;;19.80;99.90;;;;;;5071312;28;20561;-71
2022/09/19 13:30:03;;;;;;;11.75;2.10;;;20.60;99.90;;;;;;5072205;28;20056;-70